• Join FlightAware (Why Join?)
  • Login
  • US Flag 
01:30AM EDT


 

Airport Tracker/Info


-or-


 

Live Flight TrackerFlight Track Log ✈ EZY2161 ✈ 24-Apr-2013 ✈ EGGW / LTN - EHAM / AMS

Flight Track Log - Related Links

Times and Time Zones

All times are in EDT time to prevent confusion due to time zone crossing. See the EZY2161 flight status page for this flight to view local times or setup timezone preferences in your user account.

Time Position Orientation Groundspeed Altitude Reporting Facility
EDT Latitude Longitude Course Direction KTS MPH feet Rate Location/Type
11:21AM 51.9539 0.3944 80° East  Level Estimated
11:22AM 51.9624 0.4793 81° East  Level Estimated
11:23AM 51.9708 0.5643 81° East  Level Estimated
11:24AM 51.9792 0.6492 81° East  Level Estimated
11:25AM 51.9875 0.7343 81° East  Level Estimated
11:26AM 51.9958 0.8193 81° East  Level Estimated
11:27AM 52.0040 0.9044 81° East  Level Estimated
11:28AM 52.0128 0.9972 81° East  Level Estimated
11:29AM 52.0216 1.0901 81° East  Level Estimated
11:30AM 52.0303 1.1830 81° East  Level Estimated
11:31AM 52.0390 1.2759 81° East  Level Estimated
11:32AM 52.0475 1.3689 81° East  Level Estimated
11:33AM 52.0560 1.4619 82° East  Level Estimated
11:34AM 52.0645 1.5550 82° East  Level Estimated
11:35AM 52.0744 1.6663 82° East  Level Estimated
11:36AM 52.0843 1.7777 82° East  Level Estimated
11:37AM 52.0941 1.8891 82° East  Level Estimated
11:38AM 52.1037 2.0006 82° East  Level Estimated
11:39AM 52.1133 2.1121 82° East  Level Estimated
11:40AM 52.1227 2.2236 82° East  Level Estimated
11:41AM 52.1321 2.3352 82° East  Level Estimated
11:42AM 52.1413 2.4468 82° East  Level Estimated
11:43AM 52.1505 2.5585 82° East  Level Estimated
11:44AM 52.1595 2.6703 82° East  Level Estimated
11:45AM 52.1684 2.7820 83° East  Level Estimated
11:46AM 52.1772 2.8939 83° East  Level Estimated
11:47AM 52.1860 3.0057 83° East  Level Estimated
11:48AM 52.1946 3.1177 83° East  Level Estimated
11:49AM 52.2031 3.2296 83° East  Level Estimated
11:50AM 52.2115 3.3416 83° East  Level Estimated
11:51AM 52.2198 3.4537 83° East  Level Estimated
11:52AM 52.2279 3.5657 83° East  Level Estimated
11:53AM 52.2360 3.6779 83° East  Level Estimated
11:54AM 52.2440 3.7900 83° East  Level Estimated
11:55AM 52.2519 3.9022 83° East  Level Estimated
11:56AM 52.2596 4.0145 84° East  Level Estimated
11:57AM 52.2673 4.1267 84° East  Level Estimated
11:58AM 52.2748 4.2391 84° East  Level Estimated
11:59AM 52.2822 4.3514 84° East  Level Estimated
12:00PM 52.2896 4.4638 84° East  Level Estimated
12:01PM 52.2968 4.5763 84° East  Level Estimated
12:02PM 52.3039 4.6887 84° East  Level Estimated
12:03PM 52.3086 4.7639 84° East  Level Estimated
12:04PM 52.3086 4.7639 348° North  Level Estimated
12:05PM 52.3086 4.7639 348° North  Level Estimated
12:06PM 52.3086 4.7639 348° North  Level Estimated
12:07PM 52.3086 4.7639 348° North  Level Estimated
12:08PM 52.3086 4.7639 348° North  Level Estimated
12:09PM 52.3086 4.7639 348° North  Level Estimated
12:10PM 52.3086 4.7639 348° North  Level Estimated
12:11PM 52.3086 4.7639 348° North  Level Estimated
12:12PM 52.3086 4.7639 348° North  Level Estimated
12:13PM 52.3086 4.7639 348° North  Level Estimated
12:14PM 52.3086 4.7639 348° North  Level Estimated